sensor_id;sensor_type;location;lat;lon;timestamp;P1;durP1;ratioP1;P2;durP2;ratioP2
15816;SDS011;8009;50.070;8.232;2022-11-12T00:01:19;19.30;;;18.03;;
15816;SDS011;8009;50.070;8.232;2022-11-12T00:03:48;20.43;;;19.13;;
15816;SDS011;8009;50.070;8.232;2022-11-12T00:06:16;21.83;;;19.60;;
15816;SDS011;8009;50.070;8.232;2022-11-12T00:08:50;20.20;;;18.47;;
15816;SDS011;8009;50.070;8.232;2022-11-12T00:11:21;20.00;;;18.30;;
15816;SDS011;8009;50.070;8.232;2022-11-12T00:13:49;19.93;;;18.33;;
15816;SDS011;8009;50.070;8.232;2022-11-12T00:16:19;19.50;;;17.60;;
15816;SDS011;8009;50.070;8.232;2022-11-12T00:18:47;20.07;;;18.47;;
15816;SDS011;8009;50.070;8.232;2022-11-12T00:21:16;17.13;;;16.03;;
15816;SDS011;8009;50.070;8.232;2022-11-12T00:23:44;21.50;;;19.70;;
15816;SDS011;8009;50.070;8.232;2022-11-12T00:26:15;22.67;;;20.20;;
15816;SDS011;8009;50.070;8.232;2022-11-12T00:28:44;19.30;;;17.90;;
15816;SDS011;8009;50.070;8.232;2022-11-12T00:31:13;18.43;;;17.37;;
15816;SDS011;8009;50.070;8.232;2022-11-12T00:33:41;21.80;;;18.17;;
15816;SDS011;8009;50.070;8.232;2022-11-12T00:36:11;19.63;;;18.13;;
15816;SDS011;8009;50.070;8.232;2022-11-12T00:38:39;19.67;;;17.87;;
15816;SDS011;8009;50.070;8.232;2022-11-12T00:41:08;18.57;;;16.90;;
15816;SDS011;8009;50.070;8.232;2022-11-12T00:53:52;19.57;;;18.43;;
15816;SDS011;8009;50.070;8.232;2022-11-12T00:56:20;18.40;;;17.30;;
15816;SDS011;8009;50.070;8.232;2022-11-12T00:58:49;18.50;;;17.37;;
15816;SDS011;8009;50.070;8.232;2022-11-12T01:01:18;19.20;;;18.03;;
15816;SDS011;8009;50.070;8.232;2022-11-12T01:03:46;20.60;;;19.00;;
15816;SDS011;8009;50.070;8.232;2022-11-12T01:06:16;20.57;;;18.67;;
15816;SDS011;8009;50.070;8.232;2022-11-12T01:08:46;18.73;;;16.90;;
15816;SDS011;8009;50.070;8.232;2022-11-12T01:11:19;18.43;;;17.23;;
15816;SDS011;8009;50.070;8.232;2022-11-12T01:13:52;19.57;;;18.27;;
15816;SDS011;8009;50.070;8.232;2022-11-12T01:16:22;19.00;;;17.77;;
15816;SDS011;8009;50.070;8.232;2022-11-12T01:18:54;19.20;;;17.97;;
15816;SDS011;8009;50.070;8.232;2022-11-12T01:21:25;19.93;;;18.33;;
15816;SDS011;8009;50.070;8.232;2022-11-12T01:23:56;21.30;;;19.90;;
15816;SDS011;8009;50.070;8.232;2022-11-12T01:26:27;19.30;;;18.03;;
15816;SDS011;8009;50.070;8.232;2022-11-12T01:28:56;18.93;;;17.80;;
15816;SDS011;8009;50.070;8.232;2022-11-12T01:31:25;20.67;;;19.37;;
15816;SDS011;8009;50.070;8.232;2022-11-12T01:33:56;20.93;;;19.63;;
15816;SDS011;8009;50.070;8.232;2022-11-12T01:36:27;19.37;;;18.17;;
15816;SDS011;8009;50.070;8.232;2022-11-12T01:38:59;19.83;;;17.83;;
15816;SDS011;8009;50.070;8.232;2022-11-12T01:41:31;18.67;;;17.20;;
15816;SDS011;8009;50.070;8.232;2022-11-12T01:44:06;20.30;;;18.53;;
15816;SDS011;8009;50.070;8.232;2022-11-12T01:46:49;20.50;;;18.77;;
15816;SDS011;8009;50.070;8.232;2022-11-12T01:49:26;18.17;;;16.77;;
15816;SDS011;8009;50.070;8.232;2022-11-12T01:52:00;19.13;;;18.10;;
15816;SDS011;8009;50.070;8.232;2022-11-12T01:54:35;18.30;;;17.07;;
15816;SDS011;8009;50.070;8.232;2022-11-12T01:57:08;17.27;;;16.17;;
15816;SDS011;8009;50.070;8.232;2022-11-12T01:59:39;16.93;;;16.00;;
15816;SDS011;8009;50.070;8.232;2022-11-12T02:02:11;17.63;;;16.53;;
15816;SDS011;8009;50.070;8.232;2022-11-12T02:04:41;17.30;;;16.20;;
15816;SDS011;8009;50.070;8.232;2022-11-12T02:12:17;19.73;;;18.33;;
15816;SDS011;8009;50.070;8.232;2022-11-12T02:14:58;20.67;;;18.73;;
15816;SDS011;8009;50.070;8.232;2022-11-12T02:17:27;18.23;;;16.93;;
15816;SDS011;8009;50.070;8.232;2022-11-12T02:19:57;18.77;;;17.50;;
15816;SDS011;8009;50.070;8.232;2022-11-12T02:22:28;18.17;;;16.97;;
15816;SDS011;8009;50.070;8.232;2022-11-12T02:24:56;18.63;;;17.33;;
15816;SDS011;8009;50.070;8.232;2022-11-12T02:27:25;17.93;;;16.57;;
15816;SDS011;8009;50.070;8.232;2022-11-12T02:29:54;17.97;;;16.87;;
15816;SDS011;8009;50.070;8.232;2022-11-12T02:32:22;16.83;;;15.93;;
15816;SDS011;8009;50.070;8.232;2022-11-12T02:34:51;17.13;;;16.13;;
15816;SDS011;8009;50.070;8.232;2022-11-12T02:37:19;16.43;;;15.53;;
15816;SDS011;8009;50.070;8.232;2022-11-12T02:39:50;17.87;;;16.97;;
15816;SDS011;8009;50.070;8.232;2022-11-12T02:42:18;16.30;;;15.27;;
15816;SDS011;8009;50.070;8.232;2022-11-12T02:44:47;17.50;;;16.43;;
15816;SDS011;8009;50.070;8.232;2022-11-12T02:47:15;17.40;;;16.47;;
15816;SDS011;8009;50.070;8.232;2022-11-12T02:49:44;17.37;;;16.33;;
15816;SDS011;8009;50.070;8.232;2022-11-12T02:52:13;17.77;;;16.40;;
15816;SDS011;8009;50.070;8.232;2022-11-12T02:54:41;18.10;;;16.90;;
15816;SDS011;8009;50.070;8.232;2022-11-12T02:57:12;16.60;;;15.57;;
15816;SDS011;8009;50.070;8.232;2022-11-12T02:59:41;18.30;;;17.13;;
15816;SDS011;8009;50.070;8.232;2022-11-12T03:02:09;17.53;;;16.43;;
15816;SDS011;8009;50.070;8.232;2022-11-12T03:04:38;17.43;;;16.40;;
15816;SDS011;8009;50.070;8.232;2022-11-12T03:07:06;18.30;;;16.93;;
15816;SDS011;8009;50.070;8.232;2022-11-12T03:09:34;19.13;;;17.60;;
15816;SDS011;8009;50.070;8.232;2022-11-12T03:12:03;18.67;;;17.23;;
15816;SDS011;8009;50.070;8.232;2022-11-12T03:19:37;30.83;;;19.70;;
15816;SDS011;8009;50.070;8.232;2022-11-12T03:22:05;28.80;;;19.57;;
15816;SDS011;8009;50.070;8.232;2022-11-12T03:24:33;70.20;;;26.30;;
15816;SDS011;8009;50.070;8.232;2022-11-12T03:27:02;100.97;;;33.17;;
15816;SDS011;8009;50.070;8.232;2022-11-12T03:29:30;53.83;;;23.00;;
15816;SDS011;8009;50.070;8.232;2022-11-12T03:31:58;57.27;;;24.87;;
15816;SDS011;8009;50.070;8.232;2022-11-12T03:39:39;118.57;;;37.27;;
15816;SDS011;8009;50.070;8.232;2022-11-12T03:42:10;77.90;;;30.47;;
15816;SDS011;8009;50.070;8.232;2022-11-12T03:44:38;55.30;;;24.63;;
15816;SDS011;8009;50.070;8.232;2022-11-12T03:47:07;71.17;;;27.30;;
15816;SDS011;8009;50.070;8.232;2022-11-12T03:49:35;76.20;;;25.87;;
15816;SDS011;8009;50.070;8.232;2022-11-12T03:52:03;79.47;;;26.90;;
15816;SDS011;8009;50.070;8.232;2022-11-12T03:54:32;28.03;;;18.30;;
15816;SDS011;8009;50.070;8.232;2022-11-12T03:57:03;17.20;;;16.17;;
15816;SDS011;8009;50.070;8.232;2022-11-12T03:59:31;18.27;;;16.80;;
15816;SDS011;8009;50.070;8.232;2022-11-12T04:01:59;16.80;;;15.63;;
15816;SDS011;8009;50.070;8.232;2022-11-12T04:04:31;16.67;;;15.77;;
15816;SDS011;8009;50.070;8.232;2022-11-12T04:07:11;17.23;;;16.03;;
15816;SDS011;8009;50.070;8.232;2022-11-12T04:09:57;17.43;;;16.30;;
15816;SDS011;8009;50.070;8.232;2022-11-12T04:15:04;18.73;;;16.90;;
15816;SDS011;8009;50.070;8.232;2022-11-12T04:20:03;18.10;;;16.57;;
15816;SDS011;8009;50.070;8.232;2022-11-12T04:22:44;18.03;;;16.93;;
15816;SDS011;8009;50.070;8.232;2022-11-12T04:25:12;17.73;;;16.50;;
15816;SDS011;8009;50.070;8.232;2022-11-12T04:30:31;17.40;;;16.00;;
15816;SDS011;8009;50.070;8.232;2022-11-12T04:33:00;17.90;;;16.60;;
15816;SDS011;8009;50.070;8.232;2022-11-12T04:35:28;17.07;;;16.17;;
15816;SDS011;8009;50.070;8.232;2022-11-12T04:37:56;19.07;;;17.57;;
15816;SDS011;8009;50.070;8.232;2022-11-12T04:40:25;18.30;;;16.80;;
15816;SDS011;8009;50.070;8.232;2022-11-12T04:43:07;17.77;;;16.67;;
15816;SDS011;8009;50.070;8.232;2022-11-12T04:45:52;19.23;;;17.70;;
15816;SDS011;8009;50.070;8.232;2022-11-12T05:22:01;18.10;;;16.43;;
15816;SDS011;8009;50.070;8.232;2022-11-12T05:24:33;16.73;;;15.63;;
15816;SDS011;8009;50.070;8.232;2022-11-12T05:27:04;17.33;;;16.00;;
15816;SDS011;8009;50.070;8.232;2022-11-12T05:34:44;16.83;;;15.93;;
15816;SDS011;8009;50.070;8.232;2022-11-12T05:37:15;17.03;;;15.83;;
15816;SDS011;8009;50.070;8.232;2022-11-12T05:39:44;17.17;;;16.10;;
15816;SDS011;8009;50.070;8.232;2022-11-12T05:44:47;17.27;;;16.13;;
15816;SDS011;8009;50.070;8.232;2022-11-12T05:47:16;15.80;;;15.00;;
15816;SDS011;8009;50.070;8.232;2022-11-12T05:49:44;17.33;;;16.37;;
15816;SDS011;8009;50.070;8.232;2022-11-12T05:52:15;16.80;;;15.37;;
15816;SDS011;8009;50.070;8.232;2022-11-12T05:54:43;17.07;;;16.00;;
15816;SDS011;8009;50.070;8.232;2022-11-12T05:57:12;17.40;;;15.80;;
15816;SDS011;8009;50.070;8.232;2022-11-12T06:17:50;17.17;;;16.37;;
15816;SDS011;8009;50.070;8.232;2022-11-12T06:25:29;14.87;;;14.17;;
15816;SDS011;8009;50.070;8.232;2022-11-12T06:27:57;16.13;;;15.43;;
15816;SDS011;8009;50.070;8.232;2022-11-12T06:30:25;16.40;;;15.70;;
15816;SDS011;8009;50.070;8.232;2022-11-12T06:32:57;15.97;;;15.17;;
15816;SDS011;8009;50.070;8.232;2022-11-12T06:35:25;16.00;;;15.20;;
15816;SDS011;8009;50.070;8.232;2022-11-12T06:37:54;18.17;;;16.67;;
15816;SDS011;8009;50.070;8.232;2022-11-12T06:40:22;17.15;;;16.33;;
15816;SDS011;8009;50.070;8.232;2022-11-12T06:42:55;18.30;;;16.67;;
15816;SDS011;8009;50.070;8.232;2022-11-12T06:45:24;17.43;;;15.73;;
15816;SDS011;8009;50.070;8.232;2022-11-12T06:47:58;16.97;;;15.87;;
15816;SDS011;8009;50.070;8.232;2022-11-12T06:50:26;17.43;;;15.67;;
15816;SDS011;8009;50.070;8.232;2022-11-12T06:52:56;17.73;;;16.37;;
15816;SDS011;8009;50.070;8.232;2022-11-12T06:55:25;16.87;;;15.67;;
15816;SDS011;8009;50.070;8.232;2022-11-12T06:57:54;16.77;;;15.70;;
15816;SDS011;8009;50.070;8.232;2022-11-12T07:00:22;16.63;;;15.53;;
15816;SDS011;8009;50.070;8.232;2022-11-12T07:02:51;16.67;;;15.77;;
15816;SDS011;8009;50.070;8.232;2022-11-12T07:05:22;15.87;;;14.97;;
15816;SDS011;8009;50.070;8.232;2022-11-12T07:10:30;15.40;;;14.70;;
15816;SDS011;8009;50.070;8.232;2022-11-12T07:12:59;16.53;;;15.80;;
15816;SDS011;8009;50.070;8.232;2022-11-12T07:15:27;15.40;;;14.70;;
15816;SDS011;8009;50.070;8.232;2022-11-12T07:17:55;16.90;;;16.00;;
15816;SDS011;8009;50.070;8.232;2022-11-12T07:20:26;15.90;;;15.20;;
15816;SDS011;8009;50.070;8.232;2022-11-12T07:22:58;16.63;;;15.73;;
15816;SDS011;8009;50.070;8.232;2022-11-12T07:25:27;15.37;;;14.60;;
15816;SDS011;8009;50.070;8.232;2022-11-12T07:27:55;16.30;;;15.60;;
15816;SDS011;8009;50.070;8.232;2022-11-12T07:30:24;15.13;;;14.53;;
15816;SDS011;8009;50.070;8.232;2022-11-12T07:32:52;16.37;;;15.67;;
15816;SDS011;8009;50.070;8.232;2022-11-12T07:35:26;14.73;;;14.13;;
15816;SDS011;8009;50.070;8.232;2022-11-12T07:37:55;15.93;;;15.23;;
15816;SDS011;8009;50.070;8.232;2022-11-12T07:40:23;15.40;;;14.70;;
15816;SDS011;8009;50.070;8.232;2022-11-12T07:42:51;15.17;;;14.57;;
15816;SDS011;8009;50.070;8.232;2022-11-12T07:45:23;14.80;;;14.20;;
15816;SDS011;8009;50.070;8.232;2022-11-12T07:58:14;14.97;;;14.37;;
15816;SDS011;8009;50.070;8.232;2022-11-12T08:03:18;17.07;;;16.27;;
15816;SDS011;8009;50.070;8.232;2022-11-12T08:05:47;17.00;;;16.30;;
15816;SDS011;8009;50.070;8.232;2022-11-12T08:10:52;16.23;;;15.53;;
15816;SDS011;8009;50.070;8.232;2022-11-12T08:13:24;15.67;;;15.00;;
15816;SDS011;8009;50.070;8.232;2022-11-12T08:15:55;16.90;;;16.20;;
15816;SDS011;8009;50.070;8.232;2022-11-12T08:18:24;15.20;;;14.57;;
15816;SDS011;8009;50.070;8.232;2022-11-12T08:25:59;16.43;;;15.73;;
15816;SDS011;8009;50.070;8.232;2022-11-12T09:02:12;14.13;;;13.53;;
15816;SDS011;8009;50.070;8.232;2022-11-12T09:04:41;14.57;;;13.97;;
15816;SDS011;8009;50.070;8.232;2022-11-12T09:07:11;13.60;;;13.00;;
15816;SDS011;8009;50.070;8.232;2022-11-12T09:09:39;15.20;;;14.50;;
15816;SDS011;8009;50.070;8.232;2022-11-12T09:12:07;14.37;;;13.77;;
15816;SDS011;8009;50.070;8.232;2022-11-12T09:14:42;16.40;;;15.67;;
15816;SDS011;8009;50.070;8.232;2022-11-12T09:17:13;16.23;;;15.43;;
15816;SDS011;8009;50.070;8.232;2022-11-12T09:19:41;15.83;;;15.13;;
15816;SDS011;8009;50.070;8.232;2022-11-12T09:24:45;15.87;;;14.80;;
15816;SDS011;8009;50.070;8.232;2022-11-12T09:27:14;16.63;;;15.83;;
15816;SDS011;8009;50.070;8.232;2022-11-12T09:29:42;16.53;;;15.63;;
15816;SDS011;8009;50.070;8.232;2022-11-12T09:32:14;16.80;;;16.00;;
15816;SDS011;8009;50.070;8.232;2022-11-12T09:37:18;15.23;;;14.43;;
15816;SDS011;8009;50.070;8.232;2022-11-12T09:39:46;16.27;;;15.47;;
15816;SDS011;8009;50.070;8.232;2022-11-12T09:42:17;16.40;;;15.60;;
15816;SDS011;8009;50.070;8.232;2022-11-12T09:44:55;16.83;;;16.03;;
15816;SDS011;8009;50.070;8.232;2022-11-12T09:47:31;15.80;;;15.10;;
15816;SDS011;8009;50.070;8.232;2022-11-12T09:50:09;17.50;;;16.60;;
15816;SDS011;8009;50.070;8.232;2022-11-12T09:52:59;16.90;;;16.10;;
15816;SDS011;8009;50.070;8.232;2022-11-12T09:55:32;15.63;;;14.83;;
15816;SDS011;8009;50.070;8.232;2022-11-12T09:58:05;16.57;;;15.67;;
15816;SDS011;8009;50.070;8.232;2022-11-12T10:00:38;16.50;;;15.50;;
15816;SDS011;8009;50.070;8.232;2022-11-12T10:03:13;16.37;;;15.57;;
15816;SDS011;8009;50.070;8.232;2022-11-12T10:05:56;17.27;;;16.27;;
15816;SDS011;8009;50.070;8.232;2022-11-12T10:08:31;17.13;;;16.33;;
15816;SDS011;8009;50.070;8.232;2022-11-12T10:11:10;16.93;;;16.13;;
15816;SDS011;8009;50.070;8.232;2022-11-12T10:13:50;17.93;;;17.03;;
15816;SDS011;8009;50.070;8.232;2022-11-12T10:16:34;16.93;;;16.03;;
15816;SDS011;8009;50.070;8.232;2022-11-12T10:19:21;16.50;;;15.70;;
15816;SDS011;8009;50.070;8.232;2022-11-12T10:21:59;16.80;;;15.93;;
15816;SDS011;8009;50.070;8.232;2022-11-12T10:24:34;17.03;;;16.23;;
15816;SDS011;8009;50.070;8.232;2022-11-12T10:27:09;16.47;;;15.67;;
15816;SDS011;8009;50.070;8.232;2022-11-12T10:29:45;18.30;;;17.40;;
15816;SDS011;8009;50.070;8.232;2022-11-12T10:32:18;17.57;;;16.67;;
15816;SDS011;8009;50.070;8.232;2022-11-12T10:34:49;18.13;;;17.23;;
15816;SDS011;8009;50.070;8.232;2022-11-12T10:37:19;17.33;;;16.47;;
15816;SDS011;8009;50.070;8.232;2022-11-12T10:39:52;18.90;;;17.80;;
15816;SDS011;8009;50.070;8.232;2022-11-12T10:42:21;17.30;;;16.40;;
15816;SDS011;8009;50.070;8.232;2022-11-12T10:44:50;17.80;;;16.90;;
15816;SDS011;8009;50.070;8.232;2022-11-12T10:47:23;16.83;;;16.03;;
15816;SDS011;8009;50.070;8.232;2022-11-12T10:50:03;18.50;;;17.60;;
15816;SDS011;8009;50.070;8.232;2022-11-12T10:52:53;17.43;;;16.53;;
15816;SDS011;8009;50.070;8.232;2022-11-12T10:55:24;17.77;;;16.87;;
15816;SDS011;8009;50.070;8.232;2022-11-12T10:58:12;18.10;;;17.10;;
15816;SDS011;8009;50.070;8.232;2022-11-12T11:00:53;17.90;;;16.93;;
15816;SDS011;8009;50.070;8.232;2022-11-12T11:03:25;16.67;;;15.77;;
15816;SDS011;8009;50.070;8.232;2022-11-12T11:05:59;17.93;;;17.03;;
15816;SDS011;8009;50.070;8.232;2022-11-12T11:08:36;17.70;;;16.90;;
15816;SDS011;8009;50.070;8.232;2022-11-12T11:11:12;17.17;;;16.37;;
15816;SDS011;8009;50.070;8.232;2022-11-12T11:13:45;18.23;;;17.20;;
15816;SDS011;8009;50.070;8.232;2022-11-12T11:16:15;17.90;;;17.00;;
15816;SDS011;8009;50.070;8.232;2022-11-12T11:18:47;18.13;;;17.20;;
15816;SDS011;8009;50.070;8.232;2022-11-12T11:24:34;17.53;;;16.63;;
15816;SDS011;8009;50.070;8.232;2022-11-12T11:27:09;17.23;;;16.43;;
15816;SDS011;8009;50.070;8.232;2022-11-12T11:29:59;16.37;;;15.57;;
15816;SDS011;8009;50.070;8.232;2022-11-12T11:32:36;18.07;;;17.20;;
15816;SDS011;8009;50.070;8.232;2022-11-12T11:35:18;17.50;;;16.57;;
15816;SDS011;8009;50.070;8.232;2022-11-12T11:38:02;17.93;;;17.03;;
15816;SDS011;8009;50.070;8.232;2022-11-12T11:40:42;18.40;;;17.50;;
15816;SDS011;8009;50.070;8.232;2022-11-12T11:43:22;16.83;;;16.03;;
15816;SDS011;8009;50.070;8.232;2022-11-12T11:46:13;16.70;;;15.90;;
15816;SDS011;8009;50.070;8.232;2022-11-12T11:48:55;18.03;;;17.23;;
15816;SDS011;8009;50.070;8.232;2022-11-12T11:51:37;18.23;;;17.33;;
15816;SDS011;8009;50.070;8.232;2022-11-12T11:54:19;18.10;;;17.20;;
15816;SDS011;8009;50.070;8.232;2022-11-12T11:57:09;20.17;;;19.20;;
15816;SDS011;8009;50.070;8.232;2022-11-12T11:59:41;19.03;;;18.13;;
15816;SDS011;8009;50.070;8.232;2022-11-12T12:02:25;17.17;;;16.37;;
15816;SDS011;8009;50.070;8.232;2022-11-12T12:05:17;17.63;;;16.83;;
15816;SDS011;8009;50.070;8.232;2022-11-12T12:07:57;16.00;;;15.23;;
15816;SDS011;8009;50.070;8.232;2022-11-12T12:10:38;16.17;;;15.37;;
15816;SDS011;8009;50.070;8.232;2022-11-12T12:13:19;17.13;;;16.33;;
15816;SDS011;8009;50.070;8.232;2022-11-12T12:16:03;17.10;;;16.30;;
15816;SDS011;8009;50.070;8.232;2022-11-12T12:18:47;16.70;;;15.90;;
15816;SDS011;8009;50.070;8.232;2022-11-12T12:21:20;16.00;;;15.27;;
15816;SDS011;8009;50.070;8.232;2022-11-12T12:23:51;16.10;;;15.40;;
15816;SDS011;8009;50.070;8.232;2022-11-12T12:26:27;15.03;;;14.33;;
15816;SDS011;8009;50.070;8.232;2022-11-12T12:29:04;16.17;;;15.43;;
15816;SDS011;8009;50.070;8.232;2022-11-12T12:31:39;15.43;;;14.73;;
15816;SDS011;8009;50.070;8.232;2022-11-12T12:34:14;16.47;;;15.67;;
15816;SDS011;8009;50.070;8.232;2022-11-12T12:36:48;17.83;;;17.03;;
15816;SDS011;8009;50.070;8.232;2022-11-12T12:39:24;16.20;;;15.43;;
15816;SDS011;8009;50.070;8.232;2022-11-12T12:41:57;17.07;;;16.33;;
15816;SDS011;8009;50.070;8.232;2022-11-12T12:44:36;15.33;;;14.63;;
15816;SDS011;8009;50.070;8.232;2022-11-12T12:47:23;16.20;;;15.50;;
15816;SDS011;8009;50.070;8.232;2022-11-12T12:49:55;17.43;;;16.63;;
15816;SDS011;8009;50.070;8.232;2022-11-12T12:52:28;16.97;;;16.17;;
15816;SDS011;8009;50.070;8.232;2022-11-12T12:54:56;18.80;;;17.97;;
15816;SDS011;8009;50.070;8.232;2022-11-12T12:57:29;16.07;;;15.17;;
15816;SDS011;8009;50.070;8.232;2022-11-12T13:02:53;19.20;;;18.30;;
15816;SDS011;8009;50.070;8.232;2022-11-12T13:05:22;17.97;;;17.17;;
15816;SDS011;8009;50.070;8.232;2022-11-12T13:07:55;17.37;;;16.57;;
15816;SDS011;8009;50.070;8.232;2022-11-12T13:13:33;17.07;;;16.27;;
15816;SDS011;8009;50.070;8.232;2022-11-12T13:16:03;19.77;;;18.87;;
15816;SDS011;8009;50.070;8.232;2022-11-12T13:21:26;16.73;;;15.93;;
15816;SDS011;8009;50.070;8.232;2022-11-12T13:23:55;17.80;;;16.83;;
15816;SDS011;8009;50.070;8.232;2022-11-12T13:26:41;17.00;;;16.10;;
15816;SDS011;8009;50.070;8.232;2022-11-12T13:29:19;16.97;;;16.17;;
15816;SDS011;8009;50.070;8.232;2022-11-12T13:37:55;17.53;;;16.73;;
15816;SDS011;8009;50.070;8.232;2022-11-12T13:40:35;18.93;;;18.03;;
15816;SDS011;8009;50.070;8.232;2022-11-12T13:43:09;17.17;;;16.37;;
15816;SDS011;8009;50.070;8.232;2022-11-12T13:45:47;16.33;;;15.53;;
15816;SDS011;8009;50.070;8.232;2022-11-12T13:48:20;17.93;;;17.13;;
15816;SDS011;8009;50.070;8.232;2022-11-12T13:50:54;17.53;;;16.73;;
15816;SDS011;8009;50.070;8.232;2022-11-12T13:53:27;15.17;;;14.47;;
15816;SDS011;8009;50.070;8.232;2022-11-12T13:55:57;17.90;;;17.00;;
15816;SDS011;8009;50.070;8.232;2022-11-12T13:58:29;17.87;;;16.97;;
15816;SDS011;8009;50.070;8.232;2022-11-12T14:01:03;18.67;;;17.77;;
15816;SDS011;8009;50.070;8.232;2022-11-12T14:03:35;17.67;;;16.77;;
15816;SDS011;8009;50.070;8.232;2022-11-12T14:06:13;18.27;;;17.37;;
15816;SDS011;8009;50.070;8.232;2022-11-12T14:08:55;17.83;;;16.90;;
15816;SDS011;8009;50.070;8.232;2022-11-12T14:11:47;17.97;;;17.17;;
15816;SDS011;8009;50.070;8.232;2022-11-12T14:14:28;17.83;;;16.93;;
15816;SDS011;8009;50.070;8.232;2022-11-12T14:17:14;16.77;;;15.87;;
15816;SDS011;8009;50.070;8.232;2022-11-12T14:19:54;19.87;;;18.97;;
15816;SDS011;8009;50.070;8.232;2022-11-12T14:22:35;16.10;;;15.30;;
15816;SDS011;8009;50.070;8.232;2022-11-12T14:25:12;18.43;;;17.53;;
15816;SDS011;8009;50.070;8.232;2022-11-12T14:27:47;20.00;;;19.00;;
15816;SDS011;8009;50.070;8.232;2022-11-12T14:30:18;17.73;;;16.93;;
15816;SDS011;8009;50.070;8.232;2022-11-12T14:32:57;20.20;;;19.10;;
15816;SDS011;8009;50.070;8.232;2022-11-12T14:35:31;17.73;;;16.83;;
15816;SDS011;8009;50.070;8.232;2022-11-12T14:38:03;18.03;;;17.13;;
15816;SDS011;8009;50.070;8.232;2022-11-12T14:40:41;17.63;;;16.73;;
15816;SDS011;8009;50.070;8.232;2022-11-12T14:43:19;18.67;;;17.67;;
15816;SDS011;8009;50.070;8.232;2022-11-12T14:45:50;18.40;;;17.50;;
15816;SDS011;8009;50.070;8.232;2022-11-12T14:48:23;18.00;;;17.10;;
15816;SDS011;8009;50.070;8.232;2022-11-12T14:50:54;17.00;;;16.10;;
15816;SDS011;8009;50.070;8.232;2022-11-12T14:53:27;22.17;;;20.23;;
15816;SDS011;8009;50.070;8.232;2022-11-12T14:55:58;17.67;;;16.67;;
15816;SDS011;8009;50.070;8.232;2022-11-12T14:58:30;18.13;;;17.13;;
15816;SDS011;8009;50.070;8.232;2022-11-12T15:03:52;45.40;;;26.40;;
15816;SDS011;8009;50.070;8.232;2022-11-12T15:06:31;20.43;;;19.33;;
15816;SDS011;8009;50.070;8.232;2022-11-12T15:09:00;19.30;;;18.30;;
15816;SDS011;8009;50.070;8.232;2022-11-12T15:11:29;20.20;;;19.20;;
15816;SDS011;8009;50.070;8.232;2022-11-12T15:14:01;18.97;;;18.07;;
15816;SDS011;8009;50.070;8.232;2022-11-12T15:16:33;19.93;;;18.37;;
15816;SDS011;8009;50.070;8.232;2022-11-12T15:19:07;27.10;;;24.60;;
15816;SDS011;8009;50.070;8.232;2022-11-12T15:21:43;55.30;;;30.63;;
15816;SDS011;8009;50.070;8.232;2022-11-12T15:24:15;22.97;;;21.40;;
15816;SDS011;8009;50.070;8.232;2022-11-12T15:26:53;25.70;;;24.10;;
15816;SDS011;8009;50.070;8.232;2022-11-12T15:29:25;21.60;;;19.77;;
15816;SDS011;8009;50.070;8.232;2022-11-12T15:31:56;21.87;;;20.67;;
15816;SDS011;8009;50.070;8.232;2022-11-12T15:34:30;22.27;;;21.07;;
15816;SDS011;8009;50.070;8.232;2022-11-12T15:37:02;23.47;;;22.37;;
15816;SDS011;8009;50.070;8.232;2022-11-12T15:39:33;22.07;;;20.87;;
15816;SDS011;8009;50.070;8.232;2022-11-12T15:42:12;21.70;;;20.60;;
15816;SDS011;8009;50.070;8.232;2022-11-12T15:44:42;21.23;;;20.07;;
15816;SDS011;8009;50.070;8.232;2022-11-12T15:47:14;24.27;;;23.10;;
15816;SDS011;8009;50.070;8.232;2022-11-12T15:49:52;22.87;;;21.63;;
15816;SDS011;8009;50.070;8.232;2022-11-12T15:52:23;18.73;;;17.67;;
15816;SDS011;8009;50.070;8.232;2022-11-12T15:54:56;21.30;;;20.30;;
15816;SDS011;8009;50.070;8.232;2022-11-12T15:57:25;20.20;;;19.00;;
15816;SDS011;8009;50.070;8.232;2022-11-12T15:59:59;19.73;;;18.83;;
15816;SDS011;8009;50.070;8.232;2022-11-12T16:02:29;19.30;;;18.40;;
15816;SDS011;8009;50.070;8.232;2022-11-12T16:05:02;18.33;;;17.43;;
15816;SDS011;8009;50.070;8.232;2022-11-12T16:07:31;17.30;;;16.43;;
15816;SDS011;8009;50.070;8.232;2022-11-12T16:09:59;18.77;;;17.67;;
15816;SDS011;8009;50.070;8.232;2022-11-12T16:12:28;17.57;;;16.70;;
15816;SDS011;8009;50.070;8.232;2022-11-12T16:14:56;19.80;;;18.90;;
15816;SDS011;8009;50.070;8.232;2022-11-12T16:17:25;19.67;;;18.77;;
15816;SDS011;8009;50.070;8.232;2022-11-12T16:19:53;19.53;;;18.57;;
15816;SDS011;8009;50.070;8.232;2022-11-12T16:22:29;19.63;;;18.63;;
15816;SDS011;8009;50.070;8.232;2022-11-12T16:24:57;19.57;;;18.57;;
15816;SDS011;8009;50.070;8.232;2022-11-12T16:27:25;19.80;;;18.90;;
15816;SDS011;8009;50.070;8.232;2022-11-12T16:29:53;19.80;;;18.80;;
15816;SDS011;8009;50.070;8.232;2022-11-12T16:32:22;20.23;;;19.23;;
15816;SDS011;8009;50.070;8.232;2022-11-12T16:34:50;18.67;;;17.77;;
15816;SDS011;8009;50.070;8.232;2022-11-12T16:37:21;17.43;;;16.57;;
15816;SDS011;8009;50.070;8.232;2022-11-12T16:39:52;19.07;;;18.13;;
15816;SDS011;8009;50.070;8.232;2022-11-12T16:42:20;17.53;;;16.63;;
15816;SDS011;8009;50.070;8.232;2022-11-12T16:44:48;19.77;;;18.67;;
15816;SDS011;8009;50.070;8.232;2022-11-12T16:47:17;18.73;;;17.73;;
15816;SDS011;8009;50.070;8.232;2022-11-12T16:49:45;20.67;;;19.57;;
15816;SDS011;8009;50.070;8.232;2022-11-12T16:52:13;18.40;;;17.40;;
15816;SDS011;8009;50.070;8.232;2022-11-12T16:54:42;19.53;;;18.53;;
15816;SDS011;8009;50.070;8.232;2022-11-12T16:57:14;17.00;;;16.20;;
15816;SDS011;8009;50.070;8.232;2022-11-12T16:59:42;20.00;;;18.80;;
15816;SDS011;8009;50.070;8.232;2022-11-12T17:02:12;19.97;;;18.97;;
15816;SDS011;8009;50.070;8.232;2022-11-12T17:04:42;19.97;;;18.97;;
15816;SDS011;8009;50.070;8.232;2022-11-12T17:07:11;19.20;;;18.20;;
15816;SDS011;8009;50.070;8.232;2022-11-12T17:09:40;19.60;;;18.60;;
15816;SDS011;8009;50.070;8.232;2022-11-12T17:12:09;19.00;;;18.00;;
15816;SDS011;8009;50.070;8.232;2022-11-12T17:14:40;23.30;;;22.17;;
15816;SDS011;8009;50.070;8.232;2022-11-12T17:17:08;21.97;;;20.87;;
15816;SDS011;8009;50.070;8.232;2022-11-12T17:19:36;20.10;;;19.00;;
15816;SDS011;8009;50.070;8.232;2022-11-12T17:22:05;19.43;;;18.40;;
15816;SDS011;8009;50.070;8.232;2022-11-12T17:24:35;19.20;;;18.20;;
15816;SDS011;8009;50.070;8.232;2022-11-12T17:27:03;19.77;;;18.77;;
15816;SDS011;8009;50.070;8.232;2022-11-12T17:29:31;20.07;;;19.07;;
15816;SDS011;8009;50.070;8.232;2022-11-12T17:32:02;19.40;;;18.40;;
15816;SDS011;8009;50.070;8.232;2022-11-12T17:34:31;20.40;;;19.30;;
15816;SDS011;8009;50.070;8.232;2022-11-12T17:37:00;19.97;;;18.97;;
15816;SDS011;8009;50.070;8.232;2022-11-12T17:39:28;19.67;;;18.60;;
15816;SDS011;8009;50.070;8.232;2022-11-12T17:41:56;21.83;;;20.63;;
15816;SDS011;8009;50.070;8.232;2022-11-12T17:44:25;20.57;;;19.47;;
15816;SDS011;8009;50.070;8.232;2022-11-12T17:46:53;20.73;;;19.63;;
15816;SDS011;8009;50.070;8.232;2022-11-12T17:49:24;19.97;;;18.87;;
15816;SDS011;8009;50.070;8.232;2022-11-12T17:51:53;21.30;;;20.13;;
15816;SDS011;8009;50.070;8.232;2022-11-12T17:54:21;19.17;;;18.07;;
15816;SDS011;8009;50.070;8.232;2022-11-12T17:56:49;22.60;;;21.30;;
15816;SDS011;8009;50.070;8.232;2022-11-12T17:59:18;20.63;;;19.43;;
15816;SDS011;8009;50.070;8.232;2022-11-12T18:01:46;21.80;;;20.60;;
15816;SDS011;8009;50.070;8.232;2022-11-12T18:04:14;21.03;;;19.83;;